createdAt,value
2022-08-07T00:00:40.193Z,100.00
2022-08-07T00:03:08.773Z,100.00
2022-08-07T00:05:37.178Z,100.00
2022-08-07T00:08:05.657Z,100.00
2022-08-07T00:10:35.079Z,100.00
2022-08-07T00:13:24.018Z,100.00
2022-08-07T00:15:52.581Z,100.00
2022-08-07T00:18:24.110Z,100.00
2022-08-07T00:20:57.492Z,100.00
2022-08-07T00:23:30.206Z,100.00
2022-08-07T00:26:01.589Z,100.00
2022-08-07T00:28:33.450Z,100.00
2022-08-07T00:31:12.253Z,100.00
2022-08-07T00:33:40.643Z,100.00
2022-08-07T00:36:08.251Z,100.00
2022-08-07T00:38:36.741Z,100.00
2022-08-07T00:41:10.047Z,100.00
2022-08-07T00:44:00.920Z,100.00
2022-08-07T00:46:30.103Z,100.00
2022-08-07T00:49:02.009Z,100.00
2022-08-07T00:51:56.983Z,100.00
2022-08-07T00:54:19.706Z,100.00
2022-08-07T00:56:49.887Z,100.00
2022-08-07T00:59:35.082Z,100.00
2022-08-07T01:02:13.986Z,100.00
2022-08-07T01:04:46.972Z,100.00
2022-08-07T01:07:15.122Z,100.00
2022-08-07T01:10:05.737Z,100.00
2022-08-07T01:12:30.976Z,100.00
2022-08-07T01:15:01.757Z,100.00
2022-08-07T01:17:31.120Z,100.00
2022-08-07T01:20:10.205Z,100.00
2022-08-07T01:22:58.341Z,100.00
2022-08-07T01:25:54.302Z,100.00
2022-08-07T01:28:18.789Z,100.00
2022-08-07T01:30:51.233Z,100.00
2022-08-07T01:33:19.821Z,100.00
2022-08-07T01:35:54.383Z,100.00
2022-08-07T01:38:25.601Z,100.00
2022-08-07T01:41:02.012Z,100.00
2022-08-07T01:43:38.107Z,100.00
2022-08-07T01:46:08.345Z,100.00
2022-08-07T01:48:46.737Z,100.00
2022-08-07T01:52:02.051Z,100.00
2022-08-07T01:54:33.003Z,100.00
2022-08-07T01:57:29.941Z,100.00
2022-08-07T02:00:13.163Z,100.00
2022-08-07T02:03:18.899Z,100.00
2022-08-07T02:06:00.960Z,100.00
2022-08-07T02:08:37.918Z,100.00
2022-08-07T02:11:07.550Z,100.00
2022-08-07T02:13:56.571Z,100.00
2022-08-07T02:16:28.634Z,100.00
2022-08-07T02:19:05.470Z,100.00
2022-08-07T02:21:55.541Z,100.00
2022-08-07T02:24:24.617Z,100.00
2022-08-07T02:26:52.591Z,100.00
2022-08-07T02:29:21.762Z,100.00
2022-08-07T02:31:50.678Z,100.00
2022-08-07T02:34:18.942Z,100.00
2022-08-07T02:36:52.160Z,100.00
2022-08-07T02:39:43.889Z,100.00
2022-08-07T02:42:10.029Z,100.00
2022-08-07T02:44:47.774Z,100.00
2022-08-07T02:47:19.846Z,100.00
2022-08-07T02:50:11.406Z,100.00
2022-08-07T02:52:47.909Z,100.00
2022-08-07T02:55:28.696Z,100.00
2022-08-07T02:58:11.969Z,100.00
2022-08-07T03:00:47.015Z,100.00
2022-08-07T03:03:22.911Z,100.00
2022-08-07T03:05:54.090Z,100.00
2022-08-07T03:08:26.729Z,100.00
2022-08-07T03:10:56.487Z,100.00
2022-08-07T03:13:29.820Z,100.00
2022-08-07T03:16:08.019Z,100.00
2022-08-07T03:18:36.169Z,100.00
2022-08-07T03:21:08.749Z,100.00
2022-08-07T03:24:19.928Z,100.00
2022-08-07T03:26:31.846Z,100.00
2022-08-07T03:29:03.394Z,100.00
2022-08-07T03:31:42.804Z,100.00
2022-08-07T03:34:18.519Z,100.00
2022-08-07T03:36:54.009Z,100.00
2022-08-07T03:39:59.901Z,100.00
2022-08-07T03:42:11.948Z,100.00
2022-08-07T03:44:40.031Z,100.00
2022-08-07T03:47:13.821Z,100.00
2022-08-07T03:49:48.022Z,100.00
2022-08-07T03:52:26.143Z,100.00
2022-08-07T03:55:06.130Z,100.00
2022-08-07T03:58:32.979Z,100.00
2022-08-07T04:00:33.556Z,100.00
2022-08-07T04:03:03.998Z,100.00
2022-08-07T04:05:40.647Z,100.00
2022-08-07T04:08:16.108Z,100.00
2022-08-07T04:10:54.162Z,100.00
2022-08-07T04:14:10.326Z,100.00
2022-08-07T04:16:31.048Z,100.00
2022-08-07T04:19:04.249Z,100.00
2022-08-07T04:21:58.791Z,100.00
2022-08-07T04:24:33.678Z,100.00
2022-08-07T04:27:04.745Z,100.00
2022-08-07T04:29:48.839Z,100.00
2022-08-07T04:32:34.019Z,100.00
2022-08-07T04:35:05.516Z,100.00
2022-08-07T04:38:00.978Z,100.00
2022-08-07T04:40:26.652Z,100.00
2022-08-07T04:43:01.728Z,100.00
2022-08-07T04:46:00.502Z,100.00
2022-08-07T04:48:50.833Z,100.00
2022-08-07T04:51:27.242Z,100.00
2022-08-07T04:54:08.262Z,100.00
2022-08-07T04:58:10.818Z,100.00
2022-08-07T05:00:14.521Z,100.00
2022-08-07T05:02:47.751Z,100.00
2022-08-07T05:05:52.888Z,100.00
2022-08-07T05:08:59.939Z,100.00
2022-08-07T05:11:58.911Z,100.00
2022-08-07T05:14:52.168Z,100.00
2022-08-07T05:17:16.183Z,100.00
2022-08-07T05:20:07.802Z,100.00
2022-08-07T05:22:39.946Z,100.00
2022-08-07T05:25:11.847Z,100.00
2022-08-07T05:28:02.451Z,100.00
2022-08-07T05:30:47.080Z,100.00
2022-08-07T05:33:15.578Z,100.00
2022-08-07T05:35:45.900Z,100.00
2022-08-07T05:39:00.302Z,100.00
2022-08-07T05:41:11.990Z,100.00
2022-08-07T05:43:49.981Z,100.00
2022-08-07T05:46:30.634Z,100.00
2022-08-07T05:48:59.675Z,100.00
2022-08-07T05:51:33.177Z,100.00
2022-08-07T05:54:09.648Z,100.00
2022-08-07T05:56:51.286Z,100.00
2022-08-07T05:59:21.008Z,100.00
2022-08-07T06:01:52.638Z,100.00
2022-08-07T06:04:21.301Z,100.00
2022-08-07T06:07:03.812Z,100.00
2022-08-07T06:10:04.053Z,100.00
2022-08-07T06:12:20.826Z,100.00
2022-08-07T06:14:49.256Z,100.00
2022-08-07T06:17:22.294Z,100.00
2022-08-07T06:20:04.282Z,100.00
2022-08-07T06:22:38.904Z,100.00
2022-08-07T06:25:21.133Z,97.95
2022-08-07T06:28:01.791Z,96.90
2022-08-07T06:30:35.410Z,98.86
2022-08-07T06:33:09.916Z,97.87
2022-08-07T06:35:47.579Z,97.33
2022-08-07T06:38:19.947Z,97.87
2022-08-07T06:40:53.079Z,96.17
2022-08-07T06:43:26.033Z,93.74
2022-08-07T06:46:11.478Z,94.71
2022-08-07T06:48:41.786Z,93.86
2022-08-07T06:51:31.237Z,87.60
2022-08-07T06:55:29.876Z,93.74
2022-08-07T06:56:51.557Z,85.94
2022-08-07T07:00:14.656Z,91.65
2022-08-07T07:02:48.474Z,90.14
2022-08-07T07:05:06.154Z,92.30
2022-08-07T07:07:58.569Z,92.43
2022-08-07T07:10:28.364Z,93.73
2022-08-07T07:12:59.946Z,93.08
2022-08-07T07:15:35.992Z,89.01
2022-08-07T07:18:12.096Z,81.64
2022-08-07T07:21:04.132Z,93.95
2022-08-07T07:24:08.487Z,87.37
2022-08-07T07:26:36.880Z,91.39
2022-08-07T07:29:39.462Z,87.89
2022-08-07T07:32:01.667Z,93.39
2022-08-07T07:34:32.195Z,80.94
2022-08-07T07:37:14.434Z,83.65
2022-08-07T07:39:55.375Z,93.79
2022-08-07T07:42:32.942Z,91.52
2022-08-07T07:45:01.988Z,70.22
2022-08-07T07:47:30.332Z,75.51
2022-08-07T07:50:34.369Z,90.44
2022-08-07T07:53:13.606Z,71.08
2022-08-07T07:56:00.456Z,78.15
2022-08-07T07:58:40.644Z,90.96
2022-08-07T08:02:02.085Z,86.17
2022-08-07T08:04:10.435Z,93.72
2022-08-07T08:06:51.148Z,94.08
2022-08-07T08:09:23.338Z,86.42
2022-08-07T08:12:01.734Z,93.35
2022-08-07T08:14:36.146Z,87.00
2022-08-07T08:18:36.433Z,84.56
2022-08-07T08:20:19.029Z,81.20
2022-08-07T08:23:08.204Z,87.44
2022-08-07T08:25:56.427Z,93.93
2022-08-07T08:28:37.636Z,81.70
2022-08-07T08:31:10.796Z,79.88
2022-08-07T08:33:57.068Z,71.49
2022-08-07T08:36:30.142Z,75.96
2022-08-07T08:39:01.907Z,78.31
2022-08-07T08:41:58.720Z,71.76
2022-08-07T08:47:09.922Z,75.95
2022-08-07T08:50:02.585Z,68.06
2022-08-07T08:52:40.883Z,68.26
2022-08-07T08:55:55.342Z,65.23
2022-08-07T08:58:30.009Z,64.72
2022-08-07T09:01:15.101Z,83.91
2022-08-07T09:03:52.831Z,64.58
2022-08-07T09:06:32.749Z,63.93
2022-08-07T09:09:02.055Z,65.86
2022-08-07T09:12:02.751Z,62.57
2022-08-07T09:16:25.929Z,60.31
2022-08-07T09:18:22.753Z,67.07
2022-08-07T09:21:34.470Z,63.37
2022-08-07T09:24:59.133Z,70.47
2022-08-07T09:27:59.701Z,61.13
2022-08-07T09:30:37.296Z,72.39
2022-08-07T09:33:41.132Z,61.98
2022-08-07T09:36:15.819Z,57.84
2022-08-07T09:38:54.374Z,72.36
2022-08-07T09:41:28.102Z,58.60
2022-08-07T09:44:52.095Z,59.47
2022-08-07T09:48:02.446Z,68.18
2022-08-07T09:50:36.432Z,56.77
2022-08-07T09:53:05.740Z,68.00
2022-08-07T09:56:03.786Z,63.58
2022-08-07T09:58:57.202Z,63.00
2022-08-07T10:02:07.360Z,57.55
2022-08-07T10:04:46.145Z,62.05
2022-08-07T10:07:57.293Z,58.45
2022-08-07T10:10:25.031Z,66.26
2022-08-07T10:13:11.128Z,69.97
2022-08-07T10:16:08.625Z,61.77
2022-08-07T10:18:55.761Z,76.96
2022-08-07T10:22:12.261Z,54.74
2022-08-07T10:24:57.892Z,52.65
2022-08-07T10:27:46.674Z,62.59
2022-08-07T10:30:25.056Z,58.45
2022-08-07T10:34:05.193Z,77.13
2022-08-07T10:36:29.753Z,67.82
2022-08-07T10:39:08.847Z,54.04
2022-08-07T10:41:52.865Z,55.05
2022-08-07T10:45:08.811Z,55.23
2022-08-07T10:48:03.702Z,56.62
2022-08-07T10:50:50.413Z,54.33
2022-08-07T10:53:27.658Z,54.18
2022-08-07T10:56:20.951Z,52.93
2022-08-07T10:59:30.338Z,54.84
2022-08-07T11:02:27.380Z,69.66
2022-08-07T11:05:48.703Z,58.08
2022-08-07T11:08:18.273Z,60.95
2022-08-07T11:11:03.406Z,53.94
2022-08-07T11:14:46.452Z,55.75
2022-08-07T11:16:31.547Z,53.93
2022-08-07T11:19:11.337Z,59.68
2022-08-07T11:22:00.513Z,52.19
2022-08-07T11:24:51.937Z,59.81
2022-08-07T11:28:01.537Z,53.27
2022-08-07T11:30:42.120Z,50.44
2022-08-07T11:33:58.399Z,56.86
2022-08-07T11:36:51.952Z,54.94
2022-08-07T11:39:55.767Z,56.39
2022-08-07T11:42:29.616Z,54.61
2022-08-07T11:45:20.582Z,48.16
2022-08-07T11:48:02.632Z,49.86
2022-08-07T11:50:44.728Z,48.02
2022-08-07T11:53:26.793Z,53.20
2022-08-07T11:56:26.585Z,46.94
2022-08-07T12:00:11.339Z,51.10
2022-08-07T12:02:31.125Z,49.28
2022-08-07T12:05:00.653Z,57.78
2022-08-07T12:07:39.010Z,48.96
2022-08-07T12:10:12.459Z,47.28
2022-08-07T12:13:03.959Z,55.91
2022-08-07T12:16:06.779Z,47.64
2022-08-07T12:19:01.352Z,52.91
2022-08-07T12:22:37.934Z,53.72
2022-08-07T12:26:00.153Z,49.85
2022-08-07T12:28:09.343Z,50.85
2022-08-07T12:30:40.700Z,51.60
2022-08-07T12:33:28.318Z,45.96
2022-08-07T12:36:02.362Z,45.81
2022-08-07T12:38:42.900Z,43.55
2022-08-07T12:41:11.470Z,54.05
2022-08-07T12:44:03.554Z,47.63
2022-08-07T12:46:40.498Z,50.34
2022-08-07T12:49:44.368Z,50.92
2022-08-07T12:52:29.497Z,48.57
2022-08-07T12:55:24.940Z,52.56
2022-08-07T12:58:12.986Z,45.88
2022-08-07T13:01:07.621Z,47.34
2022-08-07T13:04:02.363Z,48.52
2022-08-07T13:07:00.163Z,50.23
2022-08-07T13:10:19.994Z,50.93
2022-08-07T13:12:59.523Z,53.87
2022-08-07T13:16:00.076Z,50.86
2022-08-07T13:18:50.705Z,52.54
2022-08-07T13:21:51.787Z,54.26
2022-08-07T13:24:25.786Z,55.87
2022-08-07T13:27:20.473Z,54.06
2022-08-07T13:29:53.630Z,44.43
2022-08-07T13:32:38.566Z,43.04
2022-08-07T13:36:00.568Z,55.00
2022-08-07T13:38:37.886Z,45.18
2022-08-07T13:41:17.427Z,45.52
2022-08-07T13:43:52.345Z,47.11
2022-08-07T13:46:28.269Z,47.50
2022-08-07T13:49:03.626Z,47.41
2022-08-07T13:52:05.280Z,52.38
2022-08-07T13:54:27.576Z,46.55
2022-08-07T13:56:59.700Z,44.16
2022-08-07T13:59:32.974Z,44.73
2022-08-07T14:02:13.172Z,48.61
2022-08-07T14:04:54.810Z,48.27
2022-08-07T14:07:28.289Z,47.88
2022-08-07T14:10:17.348Z,55.98
2022-08-07T14:13:04.869Z,48.51
2022-08-07T14:15:43.762Z,41.73
2022-08-07T14:18:28.394Z,49.28
2022-08-07T14:22:00.629Z,56.57
2022-08-07T14:24:06.237Z,44.19
2022-08-07T14:27:01.316Z,41.79
2022-08-07T14:32:45.597Z,50.23
2022-08-07T14:35:43.049Z,45.66
2022-08-07T14:38:07.062Z,51.20
2022-08-07T14:40:35.735Z,47.42
2022-08-07T14:43:58.939Z,60.05
2022-08-07T14:45:59.418Z,47.96
2022-08-07T14:48:28.877Z,47.78
2022-08-07T14:51:05.161Z,50.84
2022-08-07T14:54:08.825Z,57.54
2022-08-07T14:56:30.049Z,49.12
2022-08-07T14:59:02.054Z,52.01
2022-08-07T15:01:42.733Z,60.18
2022-08-07T15:04:19.046Z,53.45
2022-08-07T15:06:47.577Z,45.80
2022-08-07T15:10:00.765Z,57.96
2022-08-07T15:12:26.120Z,44.98
2022-08-07T15:15:09.171Z,55.30
2022-08-07T15:17:58.230Z,53.33
2022-08-07T15:25:15.128Z,56.64
2022-08-07T15:26:21.050Z,48.38
2022-08-07T15:28:56.638Z,58.96
2022-08-07T15:31:57.597Z,49.11
2022-08-07T15:34:15.053Z,53.09
2022-08-07T15:39:56.291Z,54.39
2022-08-07T15:42:44.207Z,56.62
2022-08-07T15:45:56.214Z,51.01
2022-08-07T15:48:25.707Z,51.49
2022-08-07T15:51:01.993Z,60.46
2022-08-07T15:53:53.099Z,59.04
2022-08-07T15:56:33.275Z,48.92
2022-08-07T15:59:05.733Z,45.75
2022-08-07T16:01:40.457Z,48.87
2022-08-07T16:04:14.540Z,49.41
2022-08-07T16:06:59.508Z,48.78
2022-08-07T16:09:42.241Z,54.05
2022-08-07T16:12:29.093Z,59.74
2022-08-07T16:15:58.653Z,49.28
2022-08-07T16:18:50.799Z,49.03
2022-08-07T16:21:56.884Z,53.93
2022-08-07T16:24:35.072Z,52.53
2022-08-07T16:27:17.836Z,52.52
2022-08-07T16:30:09.639Z,51.86
2022-08-07T16:34:02.757Z,51.23
2022-08-07T16:36:03.111Z,50.83
2022-08-07T16:38:58.589Z,57.76
2022-08-07T16:41:41.434Z,51.51
2022-08-07T16:44:53.917Z,54.24
2022-08-07T16:47:56.134Z,51.63
2022-08-07T16:51:21.706Z,52.01
2022-08-07T16:54:32.770Z,58.82
2022-08-07T16:58:00.607Z,54.20
2022-08-07T17:00:31.055Z,60.06
2022-08-07T17:03:17.403Z,56.60
2022-08-07T17:06:30.090Z,56.31
2022-08-07T17:09:09.663Z,60.00
2022-08-07T17:12:35.139Z,55.93
2022-08-07T17:15:16.861Z,54.94
2022-08-07T17:17:47.351Z,55.51
2022-08-07T17:20:37.697Z,55.03
2022-08-07T17:23:34.911Z,61.55
2022-08-07T17:26:24.133Z,53.92
2022-08-07T17:30:15.930Z,55.62
2022-08-07T17:32:31.349Z,56.48
2022-08-07T17:35:50.124Z,64.05
2022-08-07T17:38:33.934Z,62.36
2022-08-07T17:42:04.379Z,60.41
2022-08-07T17:44:45.161Z,58.39
2022-08-07T17:47:37.691Z,58.40
2022-08-07T17:50:47.139Z,57.95
2022-08-07T17:54:01.142Z,54.26
2022-08-07T17:57:03.994Z,58.64
2022-08-07T17:59:51.564Z,59.75
2022-08-07T18:02:41.329Z,57.39
2022-08-07T18:05:23.346Z,61.35
2022-08-07T18:08:16.372Z,58.60
2022-08-07T18:12:07.606Z,57.46
2022-08-07T18:14:01.675Z,59.05
2022-08-07T18:16:57.734Z,63.98
2022-08-07T18:21:06.657Z,61.72
2022-08-07T18:22:47.047Z,59.64
2022-08-07T18:25:39.266Z,66.59
2022-08-07T18:28:34.563Z,64.00
2022-08-07T18:31:18.631Z,66.94
2022-08-07T18:34:40.807Z,68.34
2022-08-07T18:38:57.381Z,72.56
2022-08-07T18:40:53.764Z,72.95
2022-08-07T18:43:59.360Z,69.77
2022-08-07T18:46:51.177Z,75.52
2022-08-07T18:50:33.455Z,66.59
2022-08-07T18:53:16.314Z,66.48
2022-08-07T18:55:57.332Z,65.02
2022-08-07T18:59:47.341Z,64.12
2022-08-07T19:02:36.312Z,63.89
2022-08-07T19:06:04.216Z,65.87
2022-08-07T19:08:50.098Z,63.55
2022-08-07T19:11:36.317Z,64.71
2022-08-07T19:14:16.971Z,64.53
2022-08-07T19:17:04.845Z,61.82
2022-08-07T19:19:50.974Z,62.37
2022-08-07T19:22:34.066Z,65.35
2022-08-07T19:25:06.487Z,64.85
2022-08-07T19:28:58.904Z,65.06
2022-08-07T19:31:00.694Z,64.84
2022-08-07T19:33:18.829Z,68.38
2022-08-07T19:36:01.862Z,67.66
2022-08-07T19:38:33.851Z,67.32
2022-08-07T19:41:01.859Z,68.04
2022-08-07T19:43:44.280Z,68.52
2022-08-07T19:46:26.322Z,70.34
2022-08-07T19:49:04.444Z,70.01
2022-08-07T19:51:51.830Z,72.94
2022-08-07T19:54:31.421Z,73.06
2022-08-07T19:58:00.721Z,71.33
2022-08-07T20:00:01.923Z,72.10
2022-08-07T20:02:52.206Z,74.81
2022-08-07T20:05:28.180Z,76.50
2022-08-07T20:08:03.066Z,76.21
2022-08-07T20:10:54.998Z,77.61
2022-08-07T20:13:42.139Z,77.46
2022-08-07T20:16:34.747Z,72.11
2022-08-07T20:19:05.481Z,78.17
2022-08-07T20:21:42.223Z,72.02
2022-08-07T20:24:30.022Z,80.73
2022-08-07T20:27:01.778Z,80.59
2022-08-07T20:29:48.275Z,79.66
2022-08-07T20:32:27.954Z,77.31
2022-08-07T20:35:12.225Z,81.75
2022-08-07T20:37:58.888Z,82.69
2022-08-07T20:40:32.017Z,82.99
2022-08-07T20:43:03.823Z,83.45
2022-08-07T20:46:26.189Z,82.53
2022-08-07T20:48:34.028Z,83.83
2022-08-07T20:51:03.795Z,84.00
2022-08-07T20:54:04.544Z,79.92
2022-08-07T20:56:30.537Z,84.65
2022-08-07T20:59:05.233Z,85.93
2022-08-07T21:01:36.551Z,76.63
2022-08-07T21:04:22.977Z,87.11
2022-08-07T21:06:55.204Z,82.00
2022-08-07T21:09:35.340Z,86.98
2022-08-07T21:12:25.991Z,86.03
2022-08-07T21:14:58.578Z,83.18
2022-08-07T21:18:17.306Z,86.20
2022-08-07T21:20:26.639Z,87.01
2022-08-07T21:22:59.076Z,83.90
2022-08-07T21:25:56.697Z,88.28
2022-08-07T21:28:49.703Z,89.54
2022-08-07T21:32:10.873Z,89.64
2022-08-07T21:34:48.218Z,83.48
2022-08-07T21:37:57.374Z,88.01
2022-08-07T21:40:46.122Z,91.02
2022-08-07T21:43:36.767Z,90.32
2022-08-07T21:46:32.470Z,88.61
2022-08-07T21:49:14.994Z,90.92
2022-08-07T21:51:54.872Z,91.26
2022-08-07T21:54:22.389Z,91.96
2022-08-07T21:57:31.564Z,90.15
2022-08-07T22:00:08.903Z,93.03
2022-08-07T22:02:58.639Z,92.00
2022-08-07T22:05:46.138Z,94.08
2022-08-07T22:08:19.565Z,91.54
2022-08-07T22:10:50.830Z,94.81
2022-08-07T22:13:23.981Z,90.10
2022-08-07T22:16:40.947Z,92.98
2022-08-07T22:18:56.229Z,92.38
2022-08-07T22:22:04.850Z,95.28
2022-08-07T22:24:49.206Z,92.46
2022-08-07T22:27:20.823Z,96.88
2022-08-07T22:30:13.443Z,94.23
2022-08-07T22:32:49.170Z,96.19
2022-08-07T22:35:17.470Z,97.01
2022-08-07T22:38:04.252Z,99.22
2022-08-07T22:40:49.779Z,98.22
2022-08-07T22:43:21.438Z,98.70
2022-08-07T22:46:47.006Z,98.77
2022-08-07T22:49:16.109Z,99.85
2022-08-07T22:51:49.188Z,100.00
2022-08-07T22:54:53.503Z,100.00
2022-08-07T22:57:59.078Z,100.00
2022-08-07T23:00:34.612Z,100.00
2022-08-07T23:03:23.899Z,100.00
2022-08-07T23:06:18.275Z,100.00
2022-08-07T23:10:06.251Z,100.00
2022-08-07T23:12:34.584Z,100.00
2022-08-07T23:15:07.768Z,100.00
2022-08-07T23:17:58.818Z,100.00
2022-08-07T23:20:58.344Z,100.00
2022-08-07T23:24:06.183Z,100.00
2022-08-07T23:27:11.983Z,100.00
2022-08-07T23:30:37.138Z,100.00
2022-08-07T23:34:22.077Z,100.00
2022-08-07T23:36:28.833Z,100.00
2022-08-07T23:39:12.619Z,100.00
2022-08-07T23:42:04.050Z,100.00
2022-08-07T23:44:40.472Z,100.00
2022-08-07T23:47:46.787Z,100.00
2022-08-07T23:50:17.746Z,100.00
2022-08-07T23:52:59.894Z,100.00
2022-08-07T23:55:47.002Z,100.00
2022-08-07T23:58:37.924Z,100.00
